Las Palmas De Gran Canaria/Gando, Spain
Current Conditions -  °F | °C
As of 6:30 PM on Thursday 27 Nov 2014 (Local Time) from GCLP Reporting Station
Few Clouds Few Clouds  
Wind Chill: 70°   Ceiling: Unl
Heat Index: 70°   Visibility: 6mi
Dew Point: 57°   Wind: 7mph
Humidity: 64%   Direction: 340°NNW
Pressure: 29.85"   Gusts: NA
Location:  27.96°N, 15.59°W
Report Text: GCLP 271830Z 34006KT 9999 FEW030 21/14 Q1011 NOSIG
Loading
Personal Weather Stations






























Interactive Weather Map New forecast layout! Learn more

10-Day Weather Forecast

Advertisements
Track Severe Weather on mobile